createdAt,value
2023-03-26T00:03:22.145Z,100.00
2023-03-26T00:06:50.424Z,100.00
2023-03-26T00:10:18.241Z,100.00
2023-03-26T00:13:45.860Z,100.00
2023-03-26T00:16:53.923Z,100.00
2023-03-26T00:20:02.667Z,100.00
2023-03-26T00:23:30.434Z,100.00
2023-03-26T00:26:58.640Z,100.00
2023-03-26T00:30:26.503Z,100.00
2023-03-26T00:33:35.213Z,100.00
2023-03-26T00:37:03.104Z,100.00
2023-03-26T00:40:30.990Z,100.00
2023-03-26T00:43:58.988Z,100.00
2023-03-26T00:47:26.807Z,100.00
2023-03-26T00:50:15.464Z,100.00
2023-03-26T00:53:43.148Z,100.00
2023-03-26T00:57:11.053Z,100.00
2023-03-26T01:00:38.984Z,100.00
2023-03-26T01:04:08.828Z,100.00
2023-03-26T01:07:34.974Z,100.00
2023-03-26T01:11:03.049Z,100.00
2023-03-26T01:14:30.992Z,100.00
2023-03-26T01:17:39.956Z,100.00
2023-03-26T01:21:07.771Z,100.00
2023-03-26T01:24:35.632Z,100.00
2023-03-26T01:28:03.386Z,100.00
2023-03-26T01:31:30.982Z,100.00
2023-03-26T01:34:58.957Z,100.00
2023-03-26T01:38:26.822Z,100.00
2023-03-26T01:41:35.230Z,100.00
2023-03-26T01:45:03.271Z,100.00
2023-03-26T01:48:31.288Z,100.00
2023-03-26T01:51:59.102Z,100.00
2023-03-26T01:55:27.655Z,100.00
2023-03-26T01:58:55.549Z,100.00
2023-03-26T02:05:32.807Z,100.00
2023-03-26T02:08:22.624Z,100.00
2023-03-26T02:11:50.298Z,100.00
2023-03-26T02:15:18.175Z,100.00
2023-03-26T02:18:46.076Z,100.00
2023-03-26T02:21:55.281Z,100.00
2023-03-26T02:25:23.212Z,100.00
2023-03-26T02:28:50.997Z,100.00
2023-03-26T02:32:18.715Z,100.00
2023-03-26T02:35:07.872Z,100.00
2023-03-26T02:38:35.670Z,100.00
2023-03-26T02:42:03.544Z,100.00
2023-03-26T02:45:31.657Z,100.00
2023-03-26T02:48:51.787Z,100.00
2023-03-26T02:52:00.931Z,100.00
2023-03-26T02:55:28.698Z,100.00
2023-03-26T02:58:56.733Z,100.00
2023-03-26T03:02:24.528Z,100.00
2023-03-26T03:05:52.879Z,100.00
2023-03-26T03:09:01.444Z,100.00
2023-03-26T03:11:56.161Z,100.00
2023-03-26T03:15:24.054Z,100.00
2023-03-26T03:18:51.860Z,100.00
2023-03-26T03:22:19.909Z,100.00
2023-03-26T03:25:29.077Z,100.00
2023-03-26T03:28:56.952Z,100.00
2023-03-26T03:32:24.777Z,100.00
2023-03-26T03:35:33.785Z,100.00
2023-03-26T03:39:01.418Z,100.00
2023-03-26T03:42:11.705Z,100.00
2023-03-26T03:45:39.462Z,100.00
2023-03-26T03:49:25.835Z,100.00
2023-03-26T03:52:35.599Z,100.00
2023-03-26T03:56:03.440Z,100.00
2023-03-26T03:59:31.378Z,100.00
2023-03-26T04:02:40.356Z,100.00
2023-03-26T04:05:49.608Z,100.00
2023-03-26T04:09:17.504Z,100.00
2023-03-26T04:12:06.805Z,100.00
2023-03-26T04:15:34.728Z,100.00
2023-03-26T04:18:43.480Z,100.00
2023-03-26T04:22:11.449Z,100.00
2023-03-26T04:25:39.083Z,100.00
2023-03-26T04:29:06.879Z,100.00
2023-03-26T04:32:34.604Z,100.00
2023-03-26T04:36:02.422Z,100.00
2023-03-26T04:39:30.304Z,100.00
2023-03-26T04:42:58.300Z,100.00
2023-03-26T04:46:06.140Z,100.00
2023-03-26T04:49:14.941Z,100.00
2023-03-26T04:52:44.975Z,100.00
2023-03-26T04:56:22.960Z,100.00
2023-03-26T04:59:53.356Z,100.00
2023-03-26T05:03:21.239Z,100.00
2023-03-26T05:06:48.961Z,100.00
2023-03-26T05:10:22.763Z,100.00
2023-03-26T05:13:31.400Z,100.00
2023-03-26T05:16:59.210Z,100.00
2023-03-26T05:20:07.480Z,100.00
2023-03-26T05:22:37.934Z,100.00
2023-03-26T05:25:46.302Z,100.00
2023-03-26T05:28:56.775Z,100.00
2023-03-26T05:32:24.539Z,100.00
2023-03-26T05:35:52.345Z,100.00
2023-03-26T05:39:20.164Z,100.00
2023-03-26T05:42:46.512Z,100.00
2023-03-26T05:45:41.699Z,100.00
2023-03-26T05:49:09.372Z,100.00
2023-03-26T05:51:59.095Z,100.00
2023-03-26T05:55:36.372Z,100.00
2023-03-26T05:59:03.073Z,100.00
2023-03-26T06:02:14.563Z,100.00
2023-03-26T06:05:02.039Z,100.00
2023-03-26T06:08:39.055Z,100.00
2023-03-26T06:12:06.808Z,100.00
2023-03-26T06:15:34.803Z,100.00
2023-03-26T06:18:46.405Z,100.00
2023-03-26T06:22:29.496Z,100.00
2023-03-26T06:25:40.367Z,100.00
2023-03-26T06:28:47.923Z,100.00
2023-03-26T06:31:59.601Z,100.00
2023-03-26T06:35:33.028Z,100.00
2023-03-26T06:39:00.888Z,100.00
2023-03-26T06:43:06.553Z,100.00
2023-03-26T06:45:55.649Z,100.00
2023-03-26T06:49:22.093Z,100.00
2023-03-26T06:52:52.814Z,100.00
2023-03-26T06:56:27.094Z,100.00
2023-03-26T06:59:55.278Z,100.00
2023-03-26T07:03:21.679Z,100.00
2023-03-26T07:06:29.562Z,100.00
2023-03-26T07:09:56.070Z,100.00
2023-03-26T07:13:07.709Z,100.00
2023-03-26T07:16:45.523Z,100.00
2023-03-26T07:20:06.284Z,100.00
2023-03-26T07:23:33.918Z,99.92
2023-03-26T07:26:45.740Z,100.00
2023-03-26T07:30:13.386Z,98.84
2023-03-26T07:33:24.258Z,94.41
2023-03-26T07:36:52.332Z,97.48
2023-03-26T07:40:26.387Z,92.96
2023-03-26T07:44:03.405Z,93.70
2023-03-26T07:47:10.054Z,91.32
2023-03-26T07:50:21.602Z,91.53
2023-03-26T07:53:34.400Z,89.68
2023-03-26T07:56:22.735Z,88.25
2023-03-26T07:59:31.097Z,86.31
2023-03-26T08:02:57.817Z,85.84
2023-03-26T08:06:12.949Z,85.66
2023-03-26T08:09:52.636Z,83.96
2023-03-26T08:13:20.457Z,83.96
2023-03-26T08:16:48.329Z,83.68
2023-03-26T08:20:16.120Z,80.72
2023-03-26T08:23:50.478Z,81.36
2023-03-26T08:27:11.809Z,79.34
2023-03-26T08:30:39.651Z,79.71
2023-03-26T08:34:07.716Z,78.75
2023-03-26T08:37:16.683Z,75.95
2023-03-26T08:40:44.521Z,75.90
2023-03-26T08:44:12.608Z,74.39
2023-03-26T08:47:40.276Z,74.03
2023-03-26T08:51:08.122Z,69.89
2023-03-26T08:54:35.857Z,69.16
2023-03-26T08:57:26.184Z,67.91
2023-03-26T09:00:35.455Z,67.11
2023-03-26T09:04:03.122Z,63.39
2023-03-26T09:06:51.467Z,62.13
2023-03-26T09:10:19.342Z,61.23
2023-03-26T09:13:48.223Z,62.50
2023-03-26T09:17:16.237Z,58.79
2023-03-26T09:20:24.916Z,59.78
2023-03-26T09:23:33.321Z,59.14
2023-03-26T09:27:01.150Z,56.51
2023-03-26T09:30:28.825Z,55.63
2023-03-26T09:33:56.859Z,54.64
2023-03-26T09:37:24.878Z,53.96
2023-03-26T09:40:53.302Z,53.09
2023-03-26T09:44:20.775Z,51.38
2023-03-26T09:47:10.286Z,51.55
2023-03-26T09:50:38.276Z,49.55
2023-03-26T09:54:06.326Z,47.82
2023-03-26T09:57:15.597Z,48.42
2023-03-26T10:00:26.977Z,48.20
2023-03-26T10:03:55.232Z,48.00
2023-03-26T10:07:24.748Z,46.37
2023-03-26T10:10:33.187Z,45.73
2023-03-26T10:14:01.142Z,44.70
2023-03-26T10:17:28.848Z,44.78
2023-03-26T10:20:56.766Z,44.45
2023-03-26T10:24:24.374Z,43.78
2023-03-26T10:27:33.162Z,41.76
2023-03-26T10:31:01.167Z,41.93
2023-03-26T10:34:10.088Z,42.12
2023-03-26T10:37:37.924Z,40.88
2023-03-26T10:41:05.776Z,41.57
2023-03-26T10:44:34.763Z,41.26
2023-03-26T10:47:43.259Z,41.15
2023-03-26T10:51:11.239Z,41.44
2023-03-26T10:54:39.107Z,41.29
2023-03-26T10:58:07.333Z,40.80
2023-03-26T11:01:35.208Z,40.52
2023-03-26T11:05:03.491Z,38.58
2023-03-26T11:08:11.982Z,38.26
2023-03-26T11:11:20.805Z,37.23
2023-03-26T11:14:48.911Z,38.19
2023-03-26T11:17:57.769Z,37.75
2023-03-26T11:21:19.970Z,37.71
2023-03-26T11:24:34.650Z,37.13
2023-03-26T11:28:02.464Z,36.02
2023-03-26T11:31:31.768Z,36.55
2023-03-26T11:34:59.476Z,36.19
2023-03-26T11:38:27.983Z,36.17
2023-03-26T11:41:55.644Z,35.40
2023-03-26T11:44:48.067Z,35.31
2023-03-26T11:47:58.717Z,34.60
2023-03-26T11:51:26.564Z,33.72
2023-03-26T11:54:54.468Z,34.68
2023-03-26T11:58:22.247Z,35.53
2023-03-26T12:01:31.292Z,34.99
2023-03-26T12:04:59.171Z,35.03
2023-03-26T12:08:26.916Z,34.46
2023-03-26T12:11:35.535Z,32.92
2023-03-26T12:15:03.021Z,33.20
2023-03-26T12:18:31.013Z,34.28
2023-03-26T12:21:19.869Z,33.70
2023-03-26T12:24:49.089Z,32.66
2023-03-26T12:27:59.076Z,32.25
2023-03-26T12:31:27.441Z,32.03
2023-03-26T12:34:17.648Z,31.37
2023-03-26T12:37:07.464Z,32.35
2023-03-26T12:40:35.712Z,31.59
2023-03-26T12:44:56.209Z,31.67
2023-03-26T12:47:59.420Z,31.50
2023-03-26T12:50:41.548Z,30.58
2023-03-26T12:54:09.363Z,30.02
2023-03-26T12:57:17.975Z,29.37
2023-03-26T13:00:45.880Z,28.79
2023-03-26T13:04:13.858Z,27.88
2023-03-26T13:07:41.720Z,28.25
2023-03-26T13:10:54.004Z,28.44
2023-03-26T13:14:22.022Z,27.91
2023-03-26T13:17:50.364Z,28.01
2023-03-26T13:21:18.059Z,26.16
2023-03-26T13:24:46.008Z,26.43
2023-03-26T13:28:13.842Z,26.73
2023-03-26T13:31:03.410Z,25.35
2023-03-26T13:34:31.432Z,25.63
2023-03-26T13:38:00.254Z,25.78
2023-03-26T13:41:10.152Z,25.22
2023-03-26T13:43:59.931Z,25.20
2023-03-26T13:47:08.809Z,26.24
2023-03-26T13:50:45.374Z,25.48
2023-03-26T13:53:53.509Z,25.17
2023-03-26T13:57:21.454Z,25.57
2023-03-26T14:00:09.924Z,25.57
2023-03-26T14:03:00.478Z,25.43
2023-03-26T14:06:29.641Z,25.36
2023-03-26T14:09:40.252Z,24.44
2023-03-26T14:13:08.003Z,24.71
2023-03-26T14:16:36.167Z,24.64
2023-03-26T14:20:04.086Z,24.48
2023-03-26T14:23:13.017Z,23.98
2023-03-26T14:26:40.789Z,24.23
2023-03-26T14:30:08.633Z,24.51
2023-03-26T14:33:37.313Z,24.09
2023-03-26T14:37:05.111Z,24.10
2023-03-26T14:40:32.981Z,24.96
2023-03-26T14:44:00.850Z,24.60
2023-03-26T14:47:28.908Z,25.20
2023-03-26T14:50:56.640Z,25.05
2023-03-26T14:54:05.287Z,25.60
2023-03-26T14:57:33.371Z,24.86
2023-03-26T15:01:03.880Z,25.52
2023-03-26T15:04:10.252Z,25.52
2023-03-26T15:06:59.845Z,24.98
2023-03-26T15:10:28.090Z,25.50
2023-03-26T15:13:57.050Z,26.07
2023-03-26T15:17:26.772Z,26.40
2023-03-26T15:20:54.841Z,27.38
2023-03-26T15:24:27.674Z,27.42
2023-03-26T15:27:36.313Z,27.25
2023-03-26T15:30:44.691Z,26.98
2023-03-26T15:34:12.591Z,26.78
2023-03-26T15:37:40.700Z,27.25
2023-03-26T15:41:08.655Z,27.31
2023-03-26T15:44:50.880Z,27.66
2023-03-26T15:48:05.188Z,28.10
2023-03-26T15:51:32.861Z,30.68
2023-03-26T15:55:00.682Z,32.22
2023-03-26T15:58:28.411Z,33.77
2023-03-26T16:01:56.164Z,34.13
2023-03-26T16:05:24.884Z,34.50
2023-03-26T16:08:34.116Z,35.63
2023-03-26T16:12:05.234Z,36.16
2023-03-26T16:15:33.152Z,36.45
2023-03-26T16:19:01.154Z,36.69
2023-03-26T16:22:10.186Z,36.69
2023-03-26T16:25:38.020Z,36.13
2023-03-26T16:29:05.991Z,34.96
2023-03-26T16:32:15.962Z,34.61
2023-03-26T16:35:43.706Z,35.94
2023-03-26T16:39:11.508Z,37.34
2023-03-26T16:42:39.260Z,38.54
2023-03-26T16:45:48.174Z,39.45
2023-03-26T16:49:16.136Z,40.55
2023-03-26T16:52:44.034Z,41.80
2023-03-26T16:55:53.790Z,42.71
2023-03-26T16:59:21.870Z,42.82
2023-03-26T17:02:10.858Z,42.57
2023-03-26T17:05:19.462Z,41.63
2023-03-26T17:08:47.406Z,43.16
2023-03-26T17:11:56.269Z,44.55
2023-03-26T17:15:24.079Z,45.01
2023-03-26T17:18:51.961Z,43.54
2023-03-26T17:21:46.213Z,44.26
2023-03-26T17:25:09.623Z,44.84
2023-03-26T17:28:37.545Z,45.35
2023-03-26T17:31:46.375Z,45.57
2023-03-26T17:35:14.859Z,46.59
2023-03-26T17:38:45.396Z,46.10
2023-03-26T17:41:50.449Z,46.41
2023-03-26T17:44:58.289Z,46.95
2023-03-26T17:48:26.163Z,46.27
2023-03-26T17:51:34.502Z,46.60
2023-03-26T17:55:05.197Z,47.59
2023-03-26T17:58:34.420Z,47.85
2023-03-26T18:01:42.204Z,47.56
2023-03-26T18:05:09.918Z,48.00
2023-03-26T18:08:37.839Z,47.87
2023-03-26T18:12:07.284Z,48.41
2023-03-26T18:15:36.397Z,48.17
2023-03-26T18:19:04.439Z,48.33
2023-03-26T18:22:13.179Z,48.90
2023-03-26T18:25:40.980Z,48.64
2023-03-26T18:28:48.944Z,48.76
2023-03-26T18:32:16.955Z,48.90
2023-03-26T18:35:25.967Z,48.43
2023-03-26T18:38:54.001Z,48.83
2023-03-26T18:42:24.220Z,49.55
2023-03-26T18:45:50.471Z,48.47
2023-03-26T18:49:19.144Z,49.95
2023-03-26T18:52:27.967Z,49.83
2023-03-26T18:55:56.990Z,51.27
2023-03-26T18:59:25.655Z,50.75
2023-03-26T19:02:53.457Z,51.19
2023-03-26T19:06:21.461Z,51.52
2023-03-26T19:09:49.583Z,51.37
2023-03-26T19:13:17.604Z,50.77
2023-03-26T19:16:45.644Z,51.39
2023-03-26T19:19:54.434Z,50.87
2023-03-26T19:23:22.522Z,51.52
2023-03-26T19:26:50.825Z,51.90
2023-03-26T19:30:00.643Z,50.89
2023-03-26T19:33:28.775Z,51.77
2023-03-26T19:36:57.470Z,51.19
2023-03-26T19:39:47.632Z,51.01
2023-03-26T19:43:16.105Z,50.65
2023-03-26T19:46:52.801Z,51.13
2023-03-26T19:49:51.992Z,51.31
2023-03-26T19:53:19.932Z,50.82
2023-03-26T19:56:28.832Z,51.09
2023-03-26T19:59:56.687Z,51.16
2023-03-26T20:03:24.776Z,50.85
2023-03-26T20:06:52.856Z,51.17
2023-03-26T20:10:01.860Z,50.28
2023-03-26T20:13:29.157Z,50.28
2023-03-26T20:16:57.239Z,50.48
2023-03-26T20:20:05.880Z,50.19
2023-03-26T20:23:33.637Z,50.07
2023-03-26T20:27:01.692Z,49.92
2023-03-26T20:33:21.732Z,50.62
2023-03-26T20:36:49.808Z,50.26
2023-03-26T20:39:38.378Z,50.17
2023-03-26T20:43:06.158Z,50.76
2023-03-26T20:46:34.434Z,50.50
2023-03-26T20:50:02.642Z,50.09
2023-03-26T20:53:12.572Z,50.19
2023-03-26T20:56:40.747Z,50.69
2023-03-26T21:00:08.728Z,50.75
2023-03-26T21:03:36.905Z,50.39
2023-03-26T21:07:15.128Z,50.92
2023-03-26T21:10:32.797Z,50.54
2023-03-26T21:14:00.641Z,50.84
2023-03-26T21:17:28.805Z,51.17
2023-03-26T21:20:56.964Z,52.18
2023-03-26T21:24:05.482Z,52.28
2023-03-26T21:27:33.211Z,52.70
2023-03-26T21:31:01.125Z,52.56
2023-03-26T21:34:09.605Z,52.80
2023-03-26T21:37:37.422Z,51.93
2023-03-26T21:41:05.337Z,53.74
2023-03-26T21:44:33.202Z,53.23
2023-03-26T21:48:01.362Z,53.73
2023-03-26T21:51:11.266Z,53.73
2023-03-26T21:54:39.041Z,53.42
2023-03-26T21:58:06.938Z,53.59
2023-03-26T22:01:35.067Z,53.24
2023-03-26T22:05:03.318Z,53.08
2023-03-26T22:08:31.178Z,53.63
2023-03-26T22:11:58.963Z,53.29
2023-03-26T22:15:26.954Z,54.06
2023-03-26T22:18:55.162Z,54.98
2023-03-26T22:22:04.053Z,55.47
2023-03-26T22:25:12.829Z,56.06
2023-03-26T22:28:40.738Z,55.96
2023-03-26T22:32:09.905Z,56.19
2023-03-26T22:35:37.624Z,55.66
2023-03-26T22:39:05.320Z,56.82
2023-03-26T22:42:33.330Z,56.85
2023-03-26T22:46:01.773Z,57.46
2023-03-26T22:49:10.141Z,57.57
2023-03-26T22:52:18.905Z,57.32
2023-03-26T22:55:28.154Z,57.24
2023-03-26T22:58:55.602Z,57.84
2023-03-26T23:02:23.711Z,58.30
2023-03-26T23:05:31.481Z,58.60
2023-03-26T23:08:40.576Z,58.39
2023-03-26T23:12:08.566Z,58.74
2023-03-26T23:14:57.594Z,59.16
2023-03-26T23:18:25.424Z,59.10
2023-03-26T23:21:53.850Z,59.94
2023-03-26T23:25:21.957Z,60.27
2023-03-26T23:28:50.008Z,59.63
2023-03-26T23:32:23.393Z,60.45
2023-03-26T23:35:45.773Z,61.00
2023-03-26T23:38:44.144Z,60.60
2023-03-26T23:42:04.229Z,60.53
2023-03-26T23:45:32.022Z,61.05
2023-03-26T23:49:00.345Z,60.70
2023-03-26T23:52:08.974Z,60.37
2023-03-26T23:55:17.223Z,59.82
2023-03-26T23:58:45.127Z,61.26
